Time;durP1;ratioP1;P1;durP2;ratioP2;P2;SDS_P1;SDS_P2;PMS_P1;PMS_P2;Temp;Humidity;BMP_temperature;BMP_pressure;BME280_temperature;BME280_humidity;BME280_pressure;Samples;Min_cycle;Max_cycle;Signal;HPM_P1;HPM_P2
2021/01/04 00:10:20;;;;;;;;;;;;;;;;;;5052647;28;20444;-88
2021/01/04 00:12:46;;;;;;;;;;;;;;;;;;5063602;28;20486;-87
2021/01/04 00:15:13;;;;;;;;;;;;;;;;;;5077971;28;20390;-90
2021/01/04 00:17:39;;;;;;;;;;;;;;;;;;5082224;28;20400;-88
2021/01/04 00:20:06;;;;;;;;;;;;;;;;;;5079271;28;20386;-89
2021/01/04 00:22:34;;;;;;;;;;;;;;;;;;5072598;28;20416;-88
2021/01/04 00:25:01;;;;;;;;;;;;;;;;;;5069095;28;20469;-87
2021/01/04 00:27:27;;;;;;;;;;;;;;;;;;5066231;28;20385;-88
2021/01/04 00:29:54;;;;;;;;;;;;;;;;;;5085827;28;20408;-87
2021/01/04 00:32:20;;;;;;;;;;;;;;;;;;5070631;28;20400;-88
2021/01/04 00:34:47;;;;;;;;;;;;;;;;;;5068411;28;20901;-88
2021/01/04 00:37:13;;;;;;;;;;;;;;;;;;5070323;28;20399;-87
2021/01/04 00:39:40;;;;;;;;;;;;;;;;;;5070177;28;20499;-88
2021/01/04 00:42:06;;;;;;;;;;;;;;;;;;5062034;28;20499;-87
2021/01/04 00:44:32;;;;;;;;;;;;;;;;;;5056527;28;20817;-87
2021/01/04 00:46:59;;;;;;;;;;;;;;;;;;5065955;28;20404;-87
2021/01/04 00:49:25;;;;;;;;;;;;;;;;;;5077665;28;20376;-87
2021/01/04 00:51:52;;;;;;;;;;;;;;;;;;5072393;28;20410;-87
2021/01/04 00:54:18;;;;;;;;;;;;;;;;;;5083523;28;20382;-87
2021/01/04 00:56:44;;;;;;;;;;;;;;;;;;5080749;28;20388;-87
2021/01/04 00:59:11;;;;;;;;;;;;;;;;;;5082199;28;20387;-87
2021/01/04 01:01:37;;;;;;;;;;;;;;;;;;5077715;28;20427;-87
2021/01/04 01:04:04;;;;;;;;;;;;;;;;;;5080717;28;20377;-87
2021/01/04 01:06:30;;;;;;;;;;;;;;;;;;5082238;28;20415;-87
2021/01/04 01:08:57;;;;;;;;;;;;;;;;;;5099539;28;20791;-87
2021/01/04 01:11:23;;;;;;;;;;;;;;;;;;5079723;28;20388;-87
2021/01/04 01:13:49;;;;;;;;;;;;;;;;;;5071943;28;20386;-87
2021/01/04 01:16:16;;;;;;;;;;;;;;;;;;5076048;28;20400;-87
2021/01/04 01:18:42;;;;;;;;;;;;;;;;;;5074677;28;20409;-87
2021/01/04 01:21:09;;;;;;;;;;;;;;;;;;5080564;28;20381;-88
2021/01/04 01:23:35;;;;;;;;;;;;;;;;;;5080211;28;20427;-87
2021/01/04 01:26:02;;;;;;;;;;;;;;;;;;5086249;28;20383;-87
2021/01/04 01:28:28;;;;;;;;;;;;;;;;;;5080903;28;20796;-87
2021/01/04 01:30:54;;;;;;;;;;;;;;;;;;5081678;28;20746;-87
2021/01/04 01:33:21;;;;;;;;;;;;;;;;;;5080544;28;20417;-87
2021/01/04 01:35:47;;;;;;;;;;;;;;;;;;5079935;28;20401;-87
2021/01/04 01:38:14;;;;;;;;;;;;;;;;;;5075422;28;20464;-88
2021/01/04 01:40:41;;;;;;;;;;;;;;;;;;5067616;28;20384;-87
2021/01/04 01:43:07;;;;;;;;;;;;;;;;;;5061236;28;20424;-87
2021/01/04 01:45:34;;;;;;;;;;;;;;;;;;5060421;28;20380;-88
2021/01/04 01:48:00;;;;;;;;;;;;;;;;;;5061615;28;20462;-87
2021/01/04 01:50:27;;;;;;;;;;;;;;;;;;5065711;28;20439;-87
2021/01/04 01:52:53;;;;;;;;;;;;;;;;;;5082477;28;20421;-87
2021/01/04 01:55:19;;;;;;;;;;;;;;;;;;5091135;28;20399;-87
2021/01/04 01:57:46;;;;;;;;;;;;;;;;;;5113023;28;20379;-88
2021/01/04 02:00:13;;;;;;;;;;;;;;;;;;5110294;28;20383;-87
2021/01/04 02:02:39;;;;;;;;;;;;;;;;;;5096221;28;20401;-87
2021/01/04 02:05:06;;;;;;;;;;;;;;;;;;5081487;28;20381;-87
2021/01/04 02:07:32;;;;;;;;;;;;;;;;;;5070055;28;20403;-87
2021/01/04 02:09:59;;;;;;;;;;;;;;;;;;5062729;28;20416;-87
2021/01/04 02:12:25;;;;;;;;;;;;;;;;;;5072538;28;20405;-87
2021/01/04 02:14:52;;;;;;;;;;;;;;;;;;5080482;28;20377;-87
2021/01/04 02:17:18;;;;;;;;;;;;;;;;;;5059585;28;20759;-87
2021/01/04 02:19:44;;;;;;;;;;;;;;;;;;5059568;28;20381;-87
2021/01/04 02:22:11;;;;;;;;;;;;;;;;;;5065693;28;20409;-87
2021/01/04 02:24:37;;;;;;;;;;;;;;;;;;5059988;28;20392;-87
2021/01/04 02:27:04;;;;;;;;;;;;;;;;;;5063879;28;20382;-87
2021/01/04 02:29:30;;;;;;;;;;;;;;;;;;5079903;28;20386;-87
2021/01/04 02:31:56;;;;;;;;;;;;;;;;;;5085599;28;20401;-87
2021/01/04 02:34:23;;;;;;;;;;;;;;;;;;5082982;28;20389;-87
2021/01/04 02:36:49;;;;;;;;;;;;;;;;;;5078417;28;20412;-87
2021/01/04 02:39:16;;;;;;;;;;;;;;;;;;5074531;28;20392;-87
2021/01/04 02:41:42;;;;;;;;;;;;;;;;;;5058171;28;20451;-87
2021/01/04 02:44:09;;;;;;;;;;;;;;;;;;5058433;28;20799;-88
2021/01/04 02:46:35;;;;;;;;;;;;;;;;;;5071761;28;20383;-88
2021/01/04 02:49:01;;;;;;;;;;;;;;;;;;5099723;28;20391;-88
2021/01/04 02:51:28;;;;;;;;;;;;;;;;;;5110730;28;20375;-88
2021/01/04 02:53:54;;;;;;;;;;;;;;;;;;5109977;28;20369;-88
2021/01/04 02:56:21;;;;;;;;;;;;;;;;;;5078983;28;20409;-87
2021/01/04 02:58:47;;;;;;;;;;;;;;;;;;5080521;28;20385;-88
2021/01/04 03:01:14;;;;;;;;;;;;;;;;;;5078642;28;20385;-88
2021/01/04 03:03:40;;;;;;;;;;;;;;;;;;5080694;28;20389;-88
2021/01/04 03:06:07;;;;;;;;;;;;;;;;;;5079910;28;20722;-87
2021/01/04 03:08:33;;;;;;;;;;;;;;;;;;5079234;28;20398;-87
2021/01/04 03:11:00;;;;;;;;;;;;;;;;;;5078730;28;20393;-87
2021/01/04 03:13:26;;;;;;;;;;;;;;;;;;5080084;28;20801;-88
2021/01/04 03:15:53;;;;;;;;;;;;;;;;;;5082872;28;20865;-87
2021/01/04 03:18:19;;;;;;;;;;;;;;;;;;5090828;28;20373;-87
2021/01/04 03:20:46;;;;;;;;;;;;;;;;;;5093718;28;20418;-88
2021/01/04 03:23:12;;;;;;;;;;;;;;;;;;5078553;28;20889;-88
2021/01/04 03:25:39;;;;;;;;;;;;;;;;;;5069906;28;20392;-88
2021/01/04 03:28:05;;;;;;;;;;;;;;;;;;5058642;28;20854;-88
2021/01/04 03:30:32;;;;;;;;;;;;;;;;;;5057959;28;20385;-87
2021/01/04 03:32:58;;;;;;;;;;;;;;;;;;5058657;28;20427;-87
2021/01/04 03:35:25;;;;;;;;;;;;;;;;;;5063188;28;20404;-88
2021/01/04 03:37:51;;;;;;;;;;;;;;;;;;5071015;28;20408;-88
2021/01/04 03:40:17;;;;;;;;;;;;;;;;;;5059957;28;20412;-88
2021/01/04 03:42:44;;;;;;;;;;;;;;;;;;5060021;28;20420;-88
2021/01/04 03:45:10;;;;;;;;;;;;;;;;;;5070409;28;20399;-87
2021/01/04 03:47:37;;;;;;;;;;;;;;;;;;5072640;28;20390;-88
2021/01/04 03:50:03;;;;;;;;;;;;;;;;;;5057927;28;20448;-88
2021/01/04 03:52:30;;;;;;;;;;;;;;;;;;5058287;28;20420;-87
2021/01/04 03:54:56;;;;;;;;;;;;;;;;;;5058699;28;20445;-87
2021/01/04 03:57:23;;;;;;;;;;;;;;;;;;5065126;28;20386;-88
2021/01/04 03:59:49;;;;;;;;;;;;;;;;;;5079285;28;20780;-87
2021/01/04 04:02:15;;;;;;;;;;;;;;;;;;5086679;28;20408;-87
2021/01/04 04:04:42;;;;;;;;;;;;;;;;;;5098739;28;20433;-87
2021/01/04 04:07:08;;;;;;;;;;;;;;;;;;5098401;28;20410;-87
2021/01/04 04:09:35;;;;;;;;;;;;;;;;;;5068280;28;20467;-87
2021/01/04 04:12:01;;;;;;;;;;;;;;;;;;5057042;28;20416;-87
2021/01/04 04:14:28;;;;;;;;;;;;;;;;;;5056538;28;20391;-87
2021/01/04 04:16:54;;;;;;;;;;;;;;;;;;5075258;28;20406;-87
2021/01/04 04:19:21;;;;;;;;;;;;;;;;;;5060138;28;20390;-87
2021/01/04 04:21:47;;;;;;;;;;;;;;;;;;5055275;28;20420;-88
2021/01/04 04:24:13;;;;;;;;;;;;;;;;;;5056437;28;20385;-88
2021/01/04 04:26:40;;;;;;;;;;;;;;;;;;5056121;28;20385;-88
2021/01/04 04:29:06;;;;;;;;;;;;;;;;;;5056050;28;20395;-88
2021/01/04 04:31:33;;;;;;;;;;;;;;;;;;5062750;28;20402;-88
2021/01/04 04:33:59;;;;;;;;;;;;;;;;;;5076333;28;20396;-87
2021/01/04 04:36:27;;;;;;;;;;;;;;;;;;5062442;28;20435;-87
2021/01/04 04:38:53;;;;;;;;;;;;;;;;;;5056553;28;20389;-87
2021/01/04 04:41:20;;;;;;;;;;;;;;;;;;5058791;28;20476;-87
2021/01/04 04:43:46;;;;;;;;;;;;;;;;;;5066442;28;20399;-88
2021/01/04 04:46:21;;;;;;;;;;;;;;;;;;5092446;28;20389;-87
2021/01/04 04:48:48;;;;;;;;;;;;;;;;;;5076823;28;20389;-87
2021/01/04 04:51:20;;;;;;;;;;;;;;;;;;5076489;28;20390;-88
2021/01/04 04:53:46;;;;;;;;;;;;;;;;;;5077065;28;20742;-87
2021/01/04 04:56:13;;;;;;;;;;;;;;;;;;5075117;28;20463;-88
2021/01/04 04:58:39;;;;;;;;;;;;;;;;;;5057640;28;20385;-88
2021/01/04 05:01:07;;;;;;;;;;;;;;;;;;5060972;28;20756;-87
2021/01/04 05:03:33;;;;;;;;;;;;;;;;;;5070622;28;20413;-87
2021/01/04 05:06:00;;;;;;;;;;;;;;;;;;5059159;28;20406;-88
2021/01/04 05:08:26;;;;;;;;;;;;;;;;;;5056251;28;20859;-87
2021/01/04 05:10:53;;;;;;;;;;;;;;;;;;5055937;28;20411;-88
2021/01/04 05:13:19;;;;;;;;;;;;;;;;;;5058527;28;20868;-88
2021/01/04 05:15:46;;;;;;;;;;;;;;;;;;5067116;28;20408;-87
2021/01/04 05:18:12;;;;;;;;;;;;;;;;;;5057762;28;20388;-88
2021/01/04 05:20:39;;;;;;;;;;;;;;;;;;5062141;28;20392;-87
2021/01/04 05:23:05;;;;;;;;;;;;;;;;;;5056092;28;20420;-87
2021/01/04 05:25:32;;;;;;;;;;;;;;;;;;5072035;28;20922;-87
2021/01/04 05:27:58;;;;;;;;;;;;;;;;;;5077778;28;20386;-87
2021/01/04 05:30:25;;;;;;;;;;;;;;;;;;5076381;28;20396;-87
2021/01/04 05:32:51;;;;;;;;;;;;;;;;;;5075932;28;20882;-87
2021/01/04 05:35:18;;;;;;;;;;;;;;;;;;5076105;28;20833;-87
2021/01/04 05:37:44;;;;;;;;;;;;;;;;;;5077501;28;20415;-87
2021/01/04 05:40:11;;;;;;;;;;;;;;;;;;5086484;28;20369;-88
2021/01/04 05:42:37;;;;;;;;;;;;;;;;;;5076573;28;20401;-87
2021/01/04 05:45:04;;;;;;;;;;;;;;;;;;5076235;28;20737;-87
2021/01/04 05:47:33;;;;;;;;;;;;;;;;;;5086321;28;20383;-87
2021/01/04 05:49:59;;;;;;;;;;;;;;;;;;5098480;28;20478;-88
2021/01/04 05:52:26;;;;;;;;;;;;;;;;;;5079037;28;20417;-88
2021/01/04 05:54:52;;;;;;;;;;;;;;;;;;5079350;28;20444;-90
2021/01/04 05:57:18;;;;;;;;;;;;;;;;;;5076514;28;20479;-89
2021/01/04 05:59:45;;;;;;;;;;;;;;;;;;5079050;28;20843;-92
2021/01/04 06:02:11;;;;;;;;;;;;;;;;;;5079249;28;20405;-90
2021/01/04 06:04:38;;;;;;;;;;;;;;;;;;5078798;28;20380;-89
2021/01/04 06:07:04;;;;;;;;;;;;;;;;;;5078988;28;20442;-89
2021/01/04 06:09:31;;;;;;;;;;;;;;;;;;5079480;28;20394;-90
2021/01/04 06:11:57;;;;;;;;;;;;;;;;;;5074464;28;20408;-90
2021/01/04 06:14:24;;;;;;;;;;;;;;;;;;5058495;28;20384;-89
2021/01/04 06:16:50;;;;;;;;;;;;;;;;;;5091300;28;20391;-90
2021/01/04 06:19:17;;;;;;;;;;;;;;;;;;5098846;28;20838;-89
2021/01/04 06:21:43;;;;;;;;;;;;;;;;;;5099385;28;20410;-90
2021/01/04 06:24:09;;;;;;;;;;;;;;;;;;5101015;28;20385;-89
2021/01/04 06:26:36;;;;;;;;;;;;;;;;;;5108407;28;20365;-89
2021/01/04 06:29:04;;;;;;;;;;;;;;;;;;5100501;28;20459;-89
2021/01/04 06:31:31;;;;;;;;;;;;;;;;;;5079706;28;20392;-90
2021/01/04 06:33:57;;;;;;;;;;;;;;;;;;5068051;28;20384;-89
2021/01/04 06:36:24;;;;;;;;;;;;;;;;;;5058203;28;20411;-89
2021/01/04 06:38:50;;;;;;;;;;;;;;;;;;5058808;28;20395;-89
2021/01/04 06:41:17;;;;;;;;;;;;;;;;;;5058257;28;20417;-89
2021/01/04 06:43:43;;;;;;;;;;;;;;;;;;5068973;28;20827;-89
2021/01/04 06:46:09;;;;;;;;;;;;;;;;;;5073293;28;20751;-89
2021/01/04 06:48:36;;;;;;;;;;;;;;;;;;5062442;28;20384;-89
2021/01/04 06:51:02;;;;;;;;;;;;;;;;;;5073778;28;20399;-88
2021/01/04 06:53:29;;;;;;;;;;;;;;;;;;5091908;28;20402;-88
2021/01/04 06:55:55;;;;;;;;;;;;;;;;;;5084598;28;20410;-89
2021/01/04 06:58:22;;;;;;;;;;;;;;;;;;5078312;28;20419;-89
2021/01/04 07:00:48;;;;;;;;;;;;;;;;;;5076845;28;20428;-89
2021/01/04 07:03:16;;;;;;;;;;;;;;;;;;5077329;28;20413;-89
2021/01/04 07:05:42;;;;;;;;;;;;;;;;;;5079238;28;20370;-89
2021/01/04 07:08:09;;;;;;;;;;;;;;;;;;5074030;28;20391;-89
2021/01/04 07:10:35;;;;;;;;;;;;;;;;;;5119670;28;20379;-89
2021/01/04 07:13:01;;;;;;;;;;;;;;;;;;5100795;28;20399;-89
2021/01/04 07:15:28;;;;;;;;;;;;;;;;;;5098639;28;20393;-89
2021/01/04 07:17:54;;;;;;;;;;;;;;;;;;5108399;28;20386;-88
2021/01/04 07:20:21;;;;;;;;;;;;;;;;;;5060258;28;20805;-88
2021/01/04 07:22:47;;;;;;;;;;;;;;;;;;5059424;28;20799;-88
2021/01/04 07:25:14;;;;;;;;;;;;;;;;;;5059630;28;20441;-89
2021/01/04 07:27:40;;;;;;;;;;;;;;;;;;5078899;28;20385;-89
2021/01/04 07:30:08;;;;;;;;;;;;;;;;;;5080222;28;20388;-89
2021/01/04 07:32:35;;;;;;;;;;;;;;;;;;5080417;28;20486;-89
2021/01/04 07:35:01;;;;;;;;;;;;;;;;;;5080312;28;20385;-89
2021/01/04 07:37:29;;;;;;;;;;;;;;;;;;5081298;28;22608;-88
2021/01/04 07:39:56;;;;;;;;;;;;;;;;;;5081118;28;20388;-89
2021/01/04 07:42:23;;;;;;;;;;;;;;;;;;5081159;28;20429;-88
2021/01/04 07:44:49;;;;;;;;;;;;;;;;;;5082539;28;20773;-88
2021/01/04 07:47:16;;;;;;;;;;;;;;;;;;5082961;28;20402;-88
2021/01/04 07:49:42;;;;;;;;;;;;;;;;;;5079546;28;20398;-88
2021/01/04 07:52:09;;;;;;;;;;;;;;;;;;5078254;28;20434;-88
2021/01/04 07:54:35;;;;;;;;;;;;;;;;;;5061563;28;20518;-88
2021/01/04 07:57:01;;;;;;;;;;;;;;;;;;5076939;28;20766;-88
2021/01/04 07:59:28;;;;;;;;;;;;;;;;;;5077805;28;20403;-87
2021/01/04 08:01:54;;;;;;;;;;;;;;;;;;5076434;28;20431;-88
2021/01/04 08:04:21;;;;;;;;;;;;;;;;;;5090449;28;20443;-87
2021/01/04 08:06:47;;;;;;;;;;;;;;;;;;5069502;28;20377;-87
2021/01/04 08:09:14;;;;;;;;;;;;;;;;;;5078775;28;20405;-87
2021/01/04 08:11:40;;;;;;;;;;;;;;;;;;5061291;28;20443;-87
2021/01/04 08:14:07;;;;;;;;;;;;;;;;;;5078655;28;20375;-88
2021/01/04 08:16:34;;;;;;;;;;;;;;;;;;5084285;28;20394;-88
2021/01/04 08:19:00;;;;;;;;;;;;;;;;;;5072926;28;20744;-88
2021/01/04 08:21:27;;;;;;;;;;;;;;;;;;5064949;28;20386;-87
2021/01/04 08:23:53;;;;;;;;;;;;;;;;;;5078769;28;20412;-88
2021/01/04 08:26:20;;;;;;;;;;;;;;;;;;5063109;28;20389;-88
2021/01/04 08:28:46;;;;;;;;;;;;;;;;;;5060679;28;20381;-88
2021/01/04 08:31:14;;;;;;;;;;;;;;;;;;5070349;28;20384;-88
2021/01/04 08:33:40;;;;;;;;;;;;;;;;;;5063989;28;20490;-88
2021/01/04 08:36:07;;;;;;;;;;;;;;;;;;5063941;28;20401;-88
2021/01/04 08:47:01;;;;;;;;;;;;;;;;;;5070437;28;20457;-88
2021/01/04 08:52:49;;;;;;;;;;;;;;;;;;5068180;28;20462;-88
2021/01/04 08:55:25;;;;;;;;;;;;;;;;;;5059404;28;20392;-88
2021/01/04 09:03:21;;;;;;;;;;;;;;;;;;5074038;28;20756;-88
2021/01/04 09:05:49;;;;;;;;;;;;;;;;;;5060007;28;20372;-89
2021/01/04 09:08:18;;;;;;;;;;;;;;;;;;5072723;28;20386;-88
2021/01/04 09:10:45;;;;;;;;;;;;;;;;;;5059797;28;20722;-88
2021/01/04 09:13:12;;;;;;;;;;;;;;;;;;5057077;28;20807;-88
2021/01/04 09:15:38;;;;;;;;;;;;;;;;;;5056489;28;20400;-88
2021/01/04 09:18:04;;;;;;;;;;;;;;;;;;5056972;28;20386;-88
2021/01/04 09:20:31;;;;;;;;;;;;;;;;;;5056675;28;20388;-88
2021/01/04 09:22:57;;;;;;;;;;;;;;;;;;5057758;28;20416;-88
2021/01/04 09:25:24;;;;;;;;;;;;;;;;;;5066621;28;20382;-88
2021/01/04 09:27:50;;;;;;;;;;;;;;;;;;5060768;28;20392;-88
2021/01/04 09:30:16;;;;;;;;;;;;;;;;;;5068245;28;20411;-88
2021/01/04 09:32:49;;;;;;;;;;;;;;;;;;5082612;28;20998;-88
2021/01/04 09:35:16;;;;;;;;;;;;;;;;;;5098718;28;20751;-88
2021/01/04 09:37:42;;;;;;;;;;;;;;;;;;5078996;28;20457;-90
2021/01/04 09:40:10;;;;;;;;;;;;;;;;;;5072335;28;20379;-86
2021/01/04 09:42:37;;;;;;;;;;;;;;;;;;5087798;28;20398;-87
2021/01/04 09:45:18;;;;;;;;;;;;;;;;;;5071057;28;20382;-87
2021/01/04 09:47:45;;;;;;;;;;;;;;;;;;5062834;28;20459;-86
2021/01/04 09:50:11;;;;;;;;;;;;;;;;;;5077698;28;20428;-86
2021/01/04 09:52:39;;;;;;;;;;;;;;;;;;5062634;28;20494;-87
2021/01/04 09:55:05;;;;;;;;;;;;;;;;;;5061311;28;20403;-87
2021/01/04 09:57:40;;;;;;;;;;;;;;;;;;5073798;28;20924;-87
2021/01/04 10:05:26;;;;;;;;;;;;;;;;;;5063092;28;20363;-87
2021/01/04 10:07:52;;;;;;;;;;;;;;;;;;5076924;28;20397;-88
2021/01/04 10:10:21;;;;;;;;;;;;;;;;;;5070286;28;20392;-88
2021/01/04 10:12:49;;;;;;;;;;;;;;;;;;5061461;28;20412;-88
2021/01/04 10:15:15;;;;;;;;;;;;;;;;;;5058906;28;20468;-88
2021/01/04 10:17:42;;;;;;;;;;;;;;;;;;5059399;28;20400;-88
2021/01/04 10:20:08;;;;;;;;;;;;;;;;;;5060563;28;20396;-87
2021/01/04 10:22:36;;;;;;;;;;;;;;;;;;5077981;28;20791;-87
2021/01/04 10:25:02;;;;;;;;;;;;;;;;;;5069296;28;20390;-87
2021/01/04 10:27:30;;;;;;;;;;;;;;;;;;5069375;28;20380;-87
2021/01/04 10:29:56;;;;;;;;;;;;;;;;;;5060933;28;20417;-87
2021/01/04 10:32:29;;;;;;;;;;;;;;;;;;5061197;28;20434;-86
2021/01/04 10:34:56;;;;;;;;;;;;;;;;;;5066833;28;20438;-86
2021/01/04 10:37:24;;;;;;;;;;;;;;;;;;5067450;28;20404;-87
2021/01/04 10:39:50;;;;;;;;;;;;;;;;;;5071272;28;20386;-87
2021/01/04 10:42:17;;;;;;;;;;;;;;;;;;5071991;28;20426;-86
2021/01/04 10:44:43;;;;;;;;;;;;;;;;;;5075847;28;20378;-87
2021/01/04 10:47:09;;;;;;;;;;;;;;;;;;5066352;28;20447;-87
2021/01/04 10:49:36;;;;;;;;;;;;;;;;;;5061382;28;20765;-87
2021/01/04 10:52:02;;;;;;;;;;;;;;;;;;5074450;28;20542;-86
2021/01/04 10:54:29;;;;;;;;;;;;;;;;;;5063148;28;20484;-87
2021/01/04 10:57:09;;;;;;;;;;;;;;;;;;5071576;28;20402;-87
2021/01/04 10:59:47;;;;;;;;;;;;;;;;;;5067149;28;20509;-89
2021/01/04 11:02:14;;;;;;;;;;;;;;;;;;5059935;28;20426;-87
2021/01/04 11:04:42;;;;;;;;;;;;;;;;;;5059322;28;20384;-88
2021/01/04 11:07:08;;;;;;;;;;;;;;;;;;5077588;28;20381;-91
2021/01/04 11:12:30;;;;;;;;;;;;;;;;;;5080026;28;20803;-87
2021/01/04 11:14:59;;;;;;;;;;;;;;;;;;5058883;28;20380;-88
2021/01/04 11:17:25;;;;;;;;;;;;;;;;;;5057951;28;20819;-87
2021/01/04 11:22:37;;;;;;;;;;;;;;;;;;5078016;28;20918;-88
2021/01/04 11:25:03;;;;;;;;;;;;;;;;;;5078463;28;20393;-88
2021/01/04 11:27:42;;;;;;;;;;;;;;;;;;5076899;28;20746;-87
2021/01/04 11:30:09;;;;;;;;;;;;;;;;;;5079999;28;20390;-87
2021/01/04 11:32:35;;;;;;;;;;;;;;;;;;5081123;28;20409;-87
2021/01/04 11:35:16;;;;;;;;;;;;;;;;;;5104582;28;20383;-90
2021/01/04 11:40:38;;;;;;;;;;;;;;;;;;5095543;28;20360;-87
2021/01/04 11:43:13;;;;;;;;;;;;;;;;;;5070532;28;20466;-87
2021/01/04 11:45:39;;;;;;;;;;;;;;;;;;5063061;28;20384;-87
2021/01/04 11:48:06;;;;;;;;;;;;;;;;;;5078604;28;20382;-87
2021/01/04 11:50:32;;;;;;;;;;;;;;;;;;5067494;28;20396;-88
2021/01/04 11:52:59;;;;;;;;;;;;;;;;;;5077823;28;20413;-87
2021/01/04 11:55:25;;;;;;;;;;;;;;;;;;5085106;28;20521;-88
2021/01/04 11:57:52;;;;;;;;;;;;;;;;;;5084386;28;20381;-87
2021/01/04 12:00:18;;;;;;;;;;;;;;;;;;5086292;28;20410;-87
2021/01/04 12:02:45;;;;;;;;;;;;;;;;;;5090803;28;20396;-86
2021/01/04 12:05:22;;;;;;;;;;;;;;;;;;5108910;28;20390;-89
2021/01/04 12:07:49;;;;;;;;;;;;;;;;;;5108088;28;20469;-88
2021/01/04 12:10:16;;;;;;;;;;;;;;;;;;5107252;28;20385;-88
2021/01/04 12:12:45;;;;;;;;;;;;;;;;;;5090946;28;20420;-87
2021/01/04 12:15:12;;;;;;;;;;;;;;;;;;5071656;28;20380;-87
2021/01/04 12:17:41;;;;;;;;;;;;;;;;;;5063849;28;20411;-87
2021/01/04 12:20:08;;;;;;;;;;;;;;;;;;5078830;28;20390;-87
2021/01/04 12:22:44;;;;;;;;;;;;;;;;;;5077403;28;20899;-87
2021/01/04 12:25:10;;;;;;;;;;;;;;;;;;5080278;28;20382;-87
2021/01/04 12:27:37;;;;;;;;;;;;;;;;;;5075207;28;20813;-87
2021/01/04 12:30:03;;;;;;;;;;;;;;;;;;5082261;28;20388;-87
2021/01/04 12:32:30;;;;;;;;;;;;;;;;;;5076326;28;20404;-89
2021/01/04 12:34:57;;;;;;;;;;;;;;;;;;5064037;28;20388;-87
2021/01/04 12:37:34;;;;;;;;;;;;;;;;;;5084149;28;20854;-89
2021/01/04 12:40:03;;;;;;;;;;;;;;;;;;5089651;28;20396;-88
2021/01/04 12:42:30;;;;;;;;;;;;;;;;;;5067620;28;20412;-87
2021/01/04 12:44:56;;;;;;;;;;;;;;;;;;5064999;28;20397;-87
2021/01/04 12:47:25;;;;;;;;;;;;;;;;;;5091816;28;20426;-89
2021/01/04 12:49:51;;;;;;;;;;;;;;;;;;5076137;28;20402;-88
2021/01/04 12:52:18;;;;;;;;;;;;;;;;;;5069437;28;20424;-89
2021/01/04 12:54:46;;;;;;;;;;;;;;;;;;5070025;28;20404;-87
2021/01/04 12:57:24;;;;;;;;;;;;;;;;;;5076303;28;20388;-87
2021/01/04 12:59:53;;;;;;;;;;;;;;;;;;5080406;28;20435;-88
2021/01/04 13:02:19;;;;;;;;;;;;;;;;;;5079642;28;20865;-88
2021/01/04 13:07:32;;;;;;;;;;;;;;;;;;5100666;28;20368;-88
2021/01/04 13:09:58;;;;;;;;;;;;;;;;;;5093986;28;20479;-87
2021/01/04 13:12:31;;;;;;;;;;;;;;;;;;5095349;28;20402;-87
2021/01/04 13:14:59;;;;;;;;;;;;;;;;;;5095058;28;20413;-87
2021/01/04 13:17:26;;;;;;;;;;;;;;;;;;5095587;28;20424;-87
2021/01/04 13:19:55;;;;;;;;;;;;;;;;;;5076411;28;20507;-88
2021/01/04 13:22:22;;;;;;;;;;;;;;;;;;5077538;28;20400;-87
2021/01/04 13:24:51;;;;;;;;;;;;;;;;;;5081232;28;20827;-89
2021/01/04 13:27:20;;;;;;;;;;;;;;;;;;5088065;28;20388;-86
2021/01/04 13:29:46;;;;;;;;;;;;;;;;;;5073825;28;20385;-88
2021/01/04 13:32:13;;;;;;;;;;;;;;;;;;5081167;28;20417;-86
2021/01/04 13:34:39;;;;;;;;;;;;;;;;;;5075558;28;20833;-86
2021/01/04 13:37:06;;;;;;;;;;;;;;;;;;5086568;28;20401;-86
2021/01/04 13:39:32;;;;;;;;;;;;;;;;;;5081845;28;20391;-87
2021/01/04 13:41:59;;;;;;;;;;;;;;;;;;5079158;28;20435;-85
2021/01/04 13:44:25;;;;;;;;;;;;;;;;;;5062266;28;20469;-86
2021/01/04 13:46:52;;;;;;;;;;;;;;;;;;5060345;28;20399;-87
2021/01/04 13:49:24;;;;;;;;;;;;;;;;;;5059792;28;20413;-87
2021/01/04 13:51:50;;;;;;;;;;;;;;;;;;5059260;28;20428;-87
2021/01/04 13:54:17;;;;;;;;;;;;;;;;;;5059438;28;20772;-86
2021/01/04 13:56:44;;;;;;;;;;;;;;;;;;5058746;28;20775;-87
2021/01/04 13:59:11;;;;;;;;;;;;;;;;;;5059072;28;20852;-87
2021/01/04 14:01:37;;;;;;;;;;;;;;;;;;5058158;28;20507;-87
2021/01/04 14:04:04;;;;;;;;;;;;;;;;;;5058014;28;20486;-87
2021/01/04 14:06:30;;;;;;;;;;;;;;;;;;5058706;28;20407;-87
2021/01/04 14:08:59;;;;;;;;;;;;;;;;;;5059365;28;20415;-87
2021/01/04 14:11:25;;;;;;;;;;;;;;;;;;5058354;28;20434;-87
2021/01/04 14:13:51;;;;;;;;;;;;;;;;;;5069252;28;20455;-91
2021/01/04 14:16:18;;;;;;;;;;;;;;;;;;5074022;28;20404;-87
2021/01/04 14:18:44;;;;;;;;;;;;;;;;;;5058959;28;20400;-87
2021/01/04 14:21:17;;;;;;;;;;;;;;;;;;5059535;28;20393;-87
2021/01/04 14:23:45;;;;;;;;;;;;;;;;;;5065395;28;20424;-85
2021/01/04 14:26:11;;;;;;;;;;;;;;;;;;5081194;28;20390;-85
2021/01/04 14:28:38;;;;;;;;;;;;;;;;;;5073040;28;20393;-86
2021/01/04 14:31:04;;;;;;;;;;;;;;;;;;5074705;28;20381;-86
2021/01/04 14:33:31;;;;;;;;;;;;;;;;;;5073761;28;20809;-86
2021/01/04 14:36:04;;;;;;;;;;;;;;;;;;5067589;28;20443;-86
2021/01/04 14:38:32;;;;;;;;;;;;;;;;;;5080629;28;20382;-87
2021/01/04 14:41:06;;;;;;;;;;;;;;;;;;5080012;28;20381;-85
2021/01/04 14:43:32;;;;;;;;;;;;;;;;;;5069542;28;20414;-86
2021/01/04 14:46:00;;;;;;;;;;;;;;;;;;5069591;28;20403;-86
2021/01/04 14:53:58;;;;;;;;;;;;;;;;;;5025085;28;20382;-85
2021/01/04 14:59:06;;;;;;;;;;;;;;;;;;5030014;28;20416;-85
2021/01/04 15:01:41;;;;;;;;;;;;;;;;;;5027411;28;20387;-86
2021/01/04 15:04:08;;;;;;;;;;;;;;;;;;5032068;28;20770;-86
2021/01/04 15:06:35;;;;;;;;;;;;;;;;;;5038579;28;20394;-86
2021/01/04 15:09:03;;;;;;;;;;;;;;;;;;5037094;28;20478;-86
2021/01/04 15:11:29;;;;;;;;;;;;;;;;;;5033591;28;20463;-86
2021/01/04 15:13:56;;;;;;;;;;;;;;;;;;5026486;28;20868;-87
2021/01/04 15:16:22;;;;;;;;;;;;;;;;;;5028672;28;20413;-86
2021/01/04 15:18:48;;;;;;;;;;;;;;;;;;5025144;28;20405;-86
2021/01/04 15:21:15;;;;;;;;;;;;;;;;;;5048524;28;20437;-89
2021/01/04 15:23:41;;;;;;;;;;;;;;;;;;5037786;28;20441;-87
2021/01/04 15:26:10;;;;;;;;;;;;;;;;;;5033771;28;20484;-85
2021/01/04 15:28:36;;;;;;;;;;;;;;;;;;5047628;28;20392;-86
2021/01/04 15:31:04;;;;;;;;;;;;;;;;;;5058211;28;20392;-85
2021/01/04 15:33:31;;;;;;;;;;;;;;;;;;5056418;28;20470;-85
2021/01/04 15:35:58;;;;;;;;;;;;;;;;;;5071203;28;20494;-85
2021/01/04 15:38:24;;;;;;;;;;;;;;;;;;5071359;28;20388;-86
2021/01/04 15:40:51;;;;;;;;;;;;;;;;;;5071650;28;20389;-88
2021/01/04 15:43:27;;;;;;;;;;;;;;;;;;5075545;28;20412;-87
2021/01/04 15:45:54;;;;;;;;;;;;;;;;;;5067309;28;20388;-87
2021/01/04 15:48:20;;;;;;;;;;;;;;;;;;5060090;28;20804;-86
2021/01/04 15:50:50;;;;;;;;;;;;;;;;;;5068644;28;20382;-87
2021/01/04 15:53:17;;;;;;;;;;;;;;;;;;5077224;28;20420;-87
2021/01/04 15:55:43;;;;;;;;;;;;;;;;;;5077113;28;20393;-88
2021/01/04 15:58:12;;;;;;;;;;;;;;;;;;5078442;28;20396;-87
2021/01/04 16:00:38;;;;;;;;;;;;;;;;;;5077683;28;20780;-87
2021/01/04 16:03:04;;;;;;;;;;;;;;;;;;5077623;28;20405;-87
2021/01/04 16:05:31;;;;;;;;;;;;;;;;;;5077825;28;20915;-87
2021/01/04 16:07:57;;;;;;;;;;;;;;;;;;5078122;28;20465;-86
2021/01/04 16:10:24;;;;;;;;;;;;;;;;;;5077583;28;20385;-86
2021/01/04 16:12:50;;;;;;;;;;;;;;;;;;5077021;28;20421;-85
2021/01/04 16:15:19;;;;;;;;;;;;;;;;;;5078206;28;20393;-88
2021/01/04 16:17:45;;;;;;;;;;;;;;;;;;5078904;28;20402;-88
2021/01/04 16:20:12;;;;;;;;;;;;;;;;;;5078554;28;20398;-89
2021/01/04 16:22:38;;;;;;;;;;;;;;;;;;5077532;28;20410;-87
2021/01/04 16:25:04;;;;;;;;;;;;;;;;;;5096119;28;20383;-88
2021/01/04 16:27:31;;;;;;;;;;;;;;;;;;5094632;28;20382;-88
2021/01/04 16:29:57;;;;;;;;;;;;;;;;;;5072662;28;20776;-87
2021/01/04 16:32:26;;;;;;;;;;;;;;;;;;5065352;28;20416;-91
2021/01/04 16:34:53;;;;;;;;;;;;;;;;;;5073309;28;20390;-87
2021/01/04 16:37:20;;;;;;;;;;;;;;;;;;5078698;28;20405;-87
2021/01/04 16:39:46;;;;;;;;;;;;;;;;;;5077454;28;20377;-87
2021/01/04 16:42:13;;;;;;;;;;;;;;;;;;5077744;28;20406;-87
2021/01/04 16:44:39;;;;;;;;;;;;;;;;;;5072431;28;20384;-86
2021/01/04 16:47:06;;;;;;;;;;;;;;;;;;5058845;28;20400;-88
2021/01/04 16:49:32;;;;;;;;;;;;;;;;;;5065817;28;20388;-88
2021/01/04 16:51:59;;;;;;;;;;;;;;;;;;5074796;28;20944;-87
2021/01/04 16:54:25;;;;;;;;;;;;;;;;;;5064189;28;20398;-88
2021/01/04 16:56:52;;;;;;;;;;;;;;;;;;5058100;28;20415;-87
2021/01/04 16:59:18;;;;;;;;;;;;;;;;;;5058373;28;20761;-87
2021/01/04 17:01:44;;;;;;;;;;;;;;;;;;5060059;28;20888;-86
2021/01/04 17:04:11;;;;;;;;;;;;;;;;;;5065076;28;20392;-86
2021/01/04 17:06:37;;;;;;;;;;;;;;;;;;5061141;28;20402;-87
2021/01/04 17:09:04;;;;;;;;;;;;;;;;;;5077043;28;20390;-86
2021/01/04 17:11:30;;;;;;;;;;;;;;;;;;5060387;28;20453;-86
2021/01/04 17:13:57;;;;;;;;;;;;;;;;;;5059968;28;20391;-86
2021/01/04 17:16:23;;;;;;;;;;;;;;;;;;5059660;28;20411;-86
2021/01/04 17:18:50;;;;;;;;;;;;;;;;;;5060968;28;20384;-86
2021/01/04 17:21:21;;;;;;;;;;;;;;;;;;5068286;28;20433;-87
2021/01/04 17:23:47;;;;;;;;;;;;;;;;;;5060561;28;20392;-86
2021/01/04 17:26:13;;;;;;;;;;;;;;;;;;5057694;28;20637;-87
2021/01/04 17:28:40;;;;;;;;;;;;;;;;;;5056735;28;20400;-86
2021/01/04 17:31:07;;;;;;;;;;;;;;;;;;5057706;28;20396;-86
2021/01/04 17:33:34;;;;;;;;;;;;;;;;;;5059728;28;20420;-87
2021/01/04 17:36:00;;;;;;;;;;;;;;;;;;5075347;28;20796;-87